Weather at Alytus Airfield

Public forecast

Using degrees Celsius for public forecast. Weather courtesy of forecast.io.

Closest aviation weather report (METAR) to Alytus Airfield

Report is more than 2 hours old.

Closest report is Kaunas International Airport, 33.1 nm (61.3 km) N.

2024/06/24 20:50 (retrieved 5 hours ago)

EYKA 242050Z 30003KT 260V360 CAVOK 18/16 Q1018

Closest aviation forecast (TAF) to Alytus Airfield

Forecast is more than 6 hours old.

Closest forecast is Kaunas International Airport, 33.1 nm (61.3 km) N.

2024/06/24 18:07 (retrieved 7 hours ago)

TAF EYKA 241700Z 2418/2518 VRB05KT 5000 BR SCT040 TEMPO 2418/2420 BKN040CB TEMPO 2420/2504 0500 FG SCT002 BECMG 2504/2506 9000 NSW NSC TEMPO 2509/2515 SCT045